Time;durP1;ratioP1;P1;durP2;ratioP2;P2;SDS_P1;SDS_P2;PMS_P1;PMS_P2;Temp;Humidity;BMP_temperature;BMP_pressure;BME280_temperature;BME280_humidity;BME280_pressure;Samples;Min_cycle;Max_cycle;Signal;HPM_P1;HPM_P2
2021/01/10 00:00:54;;;;;;;18.20;10.13;;;;;;;1.69;86.15;101211.34;5007433;28;20502;-66
2021/01/10 00:03:38;;;;;;;15.32;9.45;;;;;;;1.71;85.89;101214.75;5007183;28;20128;-66
2021/01/10 00:06:22;;;;;;;14.35;9.20;;;;;;;1.74;85.10;101213.75;4993487;28;20134;-66
2021/01/10 00:09:06;;;;;;;39.28;20.58;;;;;;;1.72;84.75;101210.34;5007377;28;20054;-66
2021/01/10 00:11:50;;;;;;;19.77;11.80;;;;;;;1.80;83.46;101209.09;5007247;28;20415;-66
2021/01/10 00:14:35;;;;;;;23.83;13.00;;;;;;;1.84;81.80;101204.53;4993912;28;20045;-66
2021/01/10 00:17:19;;;;;;;25.00;13.00;;;;;;;1.85;80.64;101207.13;4994308;28;20131;-66
2021/01/10 00:20:05;;;;;;;23.75;13.23;;;;;;;1.85;80.73;101209.75;4994197;28;20181;-67
2021/01/10 00:22:54;;;;;;;26.35;13.15;;;;;;;1.84;81.23;101208.03;4994131;28;20165;-65
2021/01/10 00:25:38;;;;;;;16.58;10.77;;;;;;;1.84;82.02;101212.44;5007008;28;20105;-67
2021/01/10 00:28:22;;;;;;;17.15;9.75;;;;;;;1.85;81.48;101215.00;4994352;28;20057;-67
2021/01/10 00:31:06;;;;;;;20.38;11.85;;;;;;;1.86;81.40;101219.34;4994429;28;20450;-67
2021/01/10 00:33:49;;;;;;;15.00;9.07;;;;;;;1.86;81.68;101215.88;5006868;28;20423;-66
2021/01/10 00:36:35;;;;;;;13.43;8.57;;;;;;;1.86;82.14;101213.25;5006986;28;20539;-67
2021/01/10 00:39:19;;;;;;;15.50;9.00;;;;;;;1.94;82.33;101206.72;5006947;28;20506;-67
2021/01/10 00:42:03;;;;;;;;;;;;;;;1.85;82.83;101204.50;4994135;28;20097;-65
2021/01/10 00:44:48;;;;;;;;;;;;;;;1.87;82.90;101210.53;4993507;28;20019;-64
2021/01/10 00:47:32;;;;;;;20.52;10.40;;;;;;;1.84;82.71;101215.94;4992852;28;20310;-67
2021/01/10 00:50:16;;;;;;;16.08;9.75;;;;;;;1.79;82.88;101223.19;4993996;28;20096;-67
2021/01/10 00:53:00;;;;;;;15.05;9.35;;;;;;;1.81;82.77;101223.09;5006564;28;20473;-66
2021/01/10 00:55:43;;;;;;;18.10;11.20;;;;;;;1.79;82.12;101224.94;5006820;28;20048;-66
2021/01/10 00:58:27;;;;;;;;;;;;;;;1.80;82.29;101230.13;4994030;28;20049;-65
2021/01/10 01:01:11;;;;;;;16.17;10.40;;;;;;;1.69;82.33;101237.63;4992781;28;20401;-67
2021/01/10 01:03:55;;;;;;;17.25;10.38;;;;;;;1.66;82.94;101231.66;5006778;28;20073;-67
2021/01/10 01:06:39;;;;;;;18.20;10.18;;;;;;;1.63;82.87;101237.00;5006460;28;20550;-67
2021/01/10 01:09:23;;;;;;;18.83;10.93;;;;;;;1.56;83.76;101240.84;4993779;28;20057;-67
2021/01/10 01:12:08;;;;;;;17.70;10.73;;;;;;;1.50;83.95;101236.69;5006489;28;20053;-67
2021/01/10 01:14:53;;;;;;;17.90;11.32;;;;;;;1.41;85.11;101230.94;4992778;28;20422;-67
2021/01/10 01:17:37;;;;;;;16.95;10.80;;;;;;;1.41;85.17;101237.06;4992779;28;20076;-66
2021/01/10 01:20:21;;;;;;;18.50;11.32;;;;;;;1.39;85.03;101241.56;5006314;28;20061;-67
2021/01/10 01:23:05;;;;;;;17.48;10.02;;;;;;;1.45;85.21;101238.66;4993567;28;20100;-65
2021/01/10 01:25:49;;;;;;;20.02;11.02;;;;;;;1.42;85.08;101240.53;4993567;28;20081;-66
2021/01/10 01:28:34;;;;;;;18.30;11.15;;;;;;;1.42;85.37;101244.03;4996487;28;20112;-67
2021/01/10 01:31:29;;;;;;;17.70;11.00;;;;;;;1.37;85.98;101251.25;4997061;28;20061;-67
2021/01/10 01:34:13;;;;;;;16.80;10.50;;;;;;;1.34;85.70;101243.50;4997299;28;20096;-67
2021/01/10 01:36:57;;;;;;;;;;;;;;;1.32;86.93;101253.22;5010557;28;20069;-65
2021/01/10 01:39:41;;;;;;;17.25;10.93;;;;;;;1.32;86.92;101254.97;4996206;28;19972;-68
2021/01/10 01:42:26;;;;;;;15.40;10.68;;;;;;;1.30;86.97;101254.19;5009937;28;20053;-67
2021/01/10 01:45:10;;;;;;;18.35;11.45;;;;;;;1.38;86.70;101247.72;4997108;28;20049;-67
2021/01/10 01:47:54;;;;;;;19.65;11.02;;;;;;;1.30;86.80;101248.94;5009958;28;20046;-66
2021/01/10 01:50:38;;;;;;;17.23;10.50;;;;;;;1.35;86.70;101258.34;4996724;28;20131;-66
2021/01/10 01:53:22;;;;;;;22.33;11.55;;;;;;;1.22;88.19;101256.25;5009807;28;20462;-67
2021/01/10 01:56:06;;;;;;;18.20;10.82;;;;;;;1.18;88.51;101267.81;5009584;28;20050;-67
2021/01/10 01:59:03;;;;;;;17.05;11.23;;;;;;;1.22;88.29;101272.91;4995890;28;20415;-66
2021/01/10 02:01:48;;;;;;;18.48;11.70;;;;;;;1.22;88.18;101261.50;4996477;28;20422;-66
2021/01/10 02:04:39;;;;;;;;;;;;;;;1.13;87.28;101262.75;5010082;28;20058;-66
2021/01/10 02:07:27;;;;;;;16.75;10.75;;;;;;;1.14;87.66;101264.47;4995855;28;19967;-66
2021/01/10 02:10:12;;;;;;;20.08;11.00;;;;;;;1.09;87.97;101255.94;4995810;28;20096;-66
2021/01/10 02:13:01;;;;;;;20.05;11.65;;;;;;;0.99;88.94;101251.09;5009533;28;20049;-64
2021/01/10 02:15:46;;;;;;;18.13;11.57;;;;;;;0.96;88.64;101262.56;5009431;28;20559;-67
2021/01/10 02:18:33;;;;;;;16.63;10.55;;;;;;;0.83;89.59;101263.97;4996380;28;20435;-67
2021/01/10 02:21:17;;;;;;;17.67;11.13;;;;;;;0.74;89.41;101259.06;4995333;28;20060;-66
2021/01/10 02:24:04;;;;;;;17.52;11.30;;;;;;;0.67;89.87;101252.34;4996660;28;20049;-64
2021/01/10 02:26:48;;;;;;;18.02;11.07;;;;;;;0.59;90.67;101249.16;4996073;28;20554;-67
2021/01/10 02:29:36;;;;;;;21.73;11.70;;;;;;;0.57;91.60;101260.63;4994987;28;20085;-67
2021/01/10 02:32:21;;;;;;;18.40;11.50;;;;;;;0.56;91.74;101249.28;5008831;28;20084;-67
2021/01/10 02:35:08;;;;;;;19.30;11.50;;;;;;;0.59;92.08;101249.16;4995893;28;20104;-66
2021/01/10 02:38:11;;;;;;;18.10;11.32;;;;;;;0.58;92.02;101250.09;5008066;28;20406;-67
2021/01/10 02:41:04;;;;;;;20.02;12.10;;;;;;;0.50;92.45;101244.25;5008559;28;20057;-65
2021/01/10 02:43:55;;;;;;;19.98;11.65;;;;;;;0.47;92.59;101244.38;5008655;28;20045;-67
2021/01/10 02:46:40;;;;;;;19.70;11.48;;;;;;;0.46;93.06;101245.31;5008815;28;20053;-65
2021/01/10 02:49:24;;;;;;;20.65;12.13;;;;;;;0.51;92.41;101240.72;5008876;28;20054;-65
2021/01/10 02:52:08;;;;;;;19.35;12.45;;;;;;;0.44;92.94;101234.00;4980979;28;20057;-67
2021/01/10 02:54:52;;;;;;;20.85;12.35;;;;;;;0.42;92.95;101232.34;5008425;28;20149;-66
2021/01/10 02:57:36;;;;;;;20.55;12.20;;;;;;;0.40;92.92;101231.53;4995856;28;20112;-66
2021/01/10 03:00:23;;;;;;;21.05;11.95;;;;;;;0.37;92.95;101236.91;4995995;28;20135;-67
2021/01/10 03:03:08;;;;;;;20.50;11.27;;;;;;;0.31;93.44;101232.75;4994546;28;20181;-65
2021/01/10 03:05:53;;;;;;;20.98;12.45;;;;;;;0.28;93.73;101232.88;4995546;28;20585;-65
2021/01/10 03:08:37;;;;;;;20.17;10.98;;;;;;;0.29;93.87;101231.94;4994598;28;20125;-65
2021/01/10 03:11:21;;;;;;;19.13;12.02;;;;;;;0.29;93.83;101226.72;5008059;28;20146;-67
2021/01/10 03:14:06;;;;;;;18.63;11.88;;;;;;;0.33;93.54;101220.44;4995186;28;20096;-66
2021/01/10 03:16:51;;;;;;;19.42;11.73;;;;;;;0.26;93.74;101223.34;4995175;28;20077;-67
2021/01/10 03:19:35;;;;;;;22.55;12.85;;;;;;;0.26;94.02;101224.22;4995136;28;20053;-67
2021/01/10 03:22:19;;;;;;;21.17;12.15;;;;;;;0.22;94.23;101222.59;5007986;28;20419;-65
2021/01/10 03:25:06;;;;;;;19.10;11.48;;;;;;;0.22;94.49;101225.22;4994180;28;20053;-67
2021/01/10 03:27:50;;;;;;;19.63;11.98;;;;;;;0.21;95.11;101226.13;4995261;28;20041;-65
2021/01/10 03:30:34;;;;;;;20.25;12.00;;;;;;;0.22;95.25;101224.38;5008168;28;20104;-65
2021/01/10 03:33:18;;;;;;;20.35;11.98;;;;;;;0.20;95.37;101236.66;4993875;28;20201;-66
2021/01/10 03:36:02;;;;;;;19.75;12.30;;;;;;;0.20;95.73;101229.66;4994871;28;20049;-67
2021/01/10 03:38:47;;;;;;;20.90;12.35;;;;;;;0.26;95.07;101224.22;4993780;28;20466;-64
2021/01/10 03:41:30;;;;;;;21.67;12.82;;;;;;;0.21;95.29;101223.50;5007787;28;20482;-67
2021/01/10 03:44:14;;;;;;;25.48;13.60;;;;;;;0.25;95.05;101227.72;4994044;28;20104;-67
2021/01/10 03:46:58;;;;;;;25.05;13.35;;;;;;;0.24;94.97;101231.25;4993532;28;20077;-67
2021/01/10 03:49:42;;;;;;;21.65;11.77;;;;;;;0.22;95.10;101222.59;5007526;28;20129;-66
2021/01/10 03:52:26;;;;;;;20.15;11.85;;;;;;;0.28;94.90;101238.13;4993726;28;20617;-67
2021/01/10 03:55:10;;;;;;;19.85;12.45;;;;;;;0.15;95.09;101225.50;5007593;28;20443;-67
2021/01/10 03:57:54;;;;;;;21.52;12.30;;;;;;;0.23;95.17;101226.91;4993696;28;20116;-65
2021/01/10 04:00:38;;;;;;;20.15;12.52;;;;;;;0.18;95.20;101222.75;4994407;28;20108;-65
2021/01/10 04:03:22;;;;;;;21.95;12.68;;;;;;;0.21;95.09;101220.06;4994595;28;20092;-67
2021/01/10 04:06:06;;;;;;;20.40;12.27;;;;;;;0.20;94.97;101216.56;4994256;28;20085;-67
2021/01/10 04:08:53;;;;;;;19.20;11.95;;;;;;;0.22;95.20;101217.34;5007542;28;20049;-67
2021/01/10 04:11:37;;;;;;;22.73;12.85;;;;;;;0.15;95.45;101229.00;4993289;28;20426;-66
2021/01/10 04:14:20;;;;;;;21.40;13.23;;;;;;;0.18;95.11;101223.63;4994046;28;20045;-66
2021/01/10 04:17:05;;;;;;;20.17;12.07;;;;;;;0.12;95.65;101215.97;4994653;28;20041;-65
2021/01/10 04:19:49;;;;;;;20.55;12.68;;;;;;;0.13;95.39;101222.94;4994084;28;20558;-66
2021/01/10 04:22:33;;;;;;;22.15;12.85;;;;;;;0.08;95.53;101227.50;5026763;23;20418;-70
2021/01/10 04:25:18;;;;;;;20.15;12.38;;;;;;;0.07;95.37;101232.78;5013979;28;20056;-70
2021/01/10 04:28:02;;;;;;;20.92;11.95;;;;;;;0.05;95.34;101229.38;5013681;28;20044;-68
2021/01/10 04:30:46;;;;;;;19.73;12.18;;;;;;;0.01;95.81;101236.50;4985298;28;20622;-70
2021/01/10 04:33:30;;;;;;;;;;;;;;;-0.01;96.12;101222.59;5012946;28;20076;-69
2021/01/10 04:36:14;;;;;;;21.15;11.93;;;;;;;-0.02;96.16;101231.38;5012788;28;19924;-70
2021/01/10 04:38:58;;;;;;;;;;;;;;;-0.10;96.50;101234.31;5013886;28;20045;-70
2021/01/10 04:41:43;;;;;;;19.93;11.60;;;;;;;-0.10;96.66;101232.56;5012426;28;20299;-69
2021/01/10 04:44:27;;;;;;;21.27;12.52;;;;;;;-0.11;96.38;101232.59;5012701;28;20271;-70
2021/01/10 04:47:11;;;;;;;24.38;12.85;;;;;;;-0.23;96.78;101238.28;5013445;28;20049;-70
2021/01/10 04:49:57;;;;;;;18.75;12.00;;;;;;;-0.26;97.45;101230.50;5012418;28;20077;-70
2021/01/10 04:52:41;;;;;;;21.98;12.30;;;;;;;-0.36;98.13;101236.97;5012508;28;20052;-70
2021/01/10 04:55:27;;;;;;;21.98;12.32;;;;;;;-0.42;98.50;101238.03;5012571;28;20044;-70
2021/01/10 04:58:12;;;;;;;19.52;11.15;;;;;;;-0.47;98.82;101246.97;5013273;28;20179;-70
2021/01/10 05:00:57;;;;;;;20.13;11.38;;;;;;;-0.50;99.38;101244.47;4998785;28;20048;-70
2021/01/10 05:03:42;;;;;;;19.45;11.88;;;;;;;-0.58;99.77;101244.72;5002691;28;20108;-70
2021/01/10 05:06:26;;;;;;;21.33;12.57;;;;;;;-0.53;100.00;101239.34;5017427;28;20044;-70
2021/01/10 05:09:10;;;;;;;21.55;12.23;;;;;;;-0.55;99.97;101241.16;5017159;28;20048;-70
2021/01/10 05:11:55;;;;;;;20.13;12.30;;;;;;;-0.59;100.00;101239.53;5016999;28;20065;-70
2021/01/10 05:14:39;;;;;;;19.83;12.38;;;;;;;-0.64;100.00;101239.69;5017325;28;20052;-69
2021/01/10 05:17:22;;;;;;;21.58;12.88;;;;;;;-0.70;100.00;101236.41;5015920;28;20157;-70
2021/01/10 05:20:08;;;;;;;21.50;12.02;;;;;;;-0.80;100.00;101235.00;5016277;28;20092;-70
2021/01/10 05:22:52;;;;;;;20.70;12.15;;;;;;;-0.87;100.00;101230.84;5016722;28;20526;-68
2021/01/10 05:25:36;;;;;;;;;;;;;;;-0.94;100.00;101232.00;5017622;28;20052;-70
2021/01/10 05:28:21;;;;;;;25.50;13.77;;;;;;;-0.92;100.00;101232.78;5016098;28;19940;-70
2021/01/10 05:31:09;;;;;;;24.23;12.73;;;;;;;-0.88;100.00;101231.78;5016689;28;20076;-70
2021/01/10 05:33:53;;;;;;;22.33;12.60;;;;;;;-0.92;100.00;101241.50;5015743;28;20179;-70
2021/01/10 05:36:37;;;;;;;;;;;;;;;-0.95;100.00;101240.75;5017258;28;20112;-70
2021/01/10 05:39:22;;;;;;;24.42;12.68;;;;;;;-1.00;100.00;101240.03;5015813;28;20013;-69
2021/01/10 05:42:06;;;;;;;21.27;11.82;;;;;;;-1.01;100.00;101235.69;5015666;28;20045;-70
2021/01/10 05:44:51;;;;;;;22.05;12.85;;;;;;;-1.08;100.00;101236.78;5015795;28;20104;-69
2021/01/10 05:47:39;;;;;;;21.25;12.85;;;;;;;-1.08;100.00;101239.41;5001969;28;20044;-69
2021/01/10 05:50:23;;;;;;;24.45;12.65;;;;;;;-1.07;100.00;101238.53;5016330;28;20103;-70
2021/01/10 05:53:23;;;;;;;23.30;13.18;;;;;;;-1.04;100.00;101243.66;5016337;28;20049;-70
2021/01/10 05:56:07;;;;;;;21.67;12.95;;;;;;;-1.08;100.00;101244.63;5015564;28;20045;-70
2021/01/10 05:58:55;;;;;;;22.80;13.52;;;;;;;-1.09;100.00;101245.53;5016342;28;20060;-70
2021/01/10 06:01:40;;;;;;;22.40;12.10;;;;;;;-1.12;100.00;101248.25;5016114;28;20115;-71
2021/01/10 06:04:24;;;;;;;24.58;14.05;;;;;;;-1.15;100.00;101243.13;5016393;28;20521;-70
2021/01/10 06:07:08;;;;;;;22.00;12.10;;;;;;;-1.21;100.00;101248.53;5015341;28;20048;-70
2021/01/10 06:09:52;;;;;;;;;;;;;;;-1.20;100.00;101245.03;5015472;28;20107;-69
2021/01/10 06:12:37;;;;;;;21.40;11.55;;;;;;;-1.23;100.00;101248.56;5015009;28;19921;-70
2021/01/10 06:15:21;;;;;;;20.60;11.88;;;;;;;-1.23;100.00;101247.75;5016179;28;20056;-70
2021/01/10 06:18:06;;;;;;;22.75;12.82;;;;;;;-1.23;100.00;101252.97;5015036;28;20057;-70
2021/01/10 06:20:54;;;;;;;26.15;14.05;;;;;;;-1.27;100.00;101238.28;5014815;28;20049;-70
2021/01/10 06:23:40;;;;;;;26.08;15.52;;;;;;;-1.32;100.00;101242.78;5015295;28;20052;-70
2021/01/10 06:26:26;;;;;;;27.60;14.88;;;;;;;-1.35;100.00;101243.72;5000897;28;20195;-70
2021/01/10 06:29:13;;;;;;;26.73;13.80;;;;;;;-1.41;100.00;101245.69;5015949;28;20124;-70
2021/01/10 06:31:57;;;;;;;23.40;13.50;;;;;;;-1.45;100.00;101249.31;5000954;28;20057;-70
2021/01/10 06:34:42;;;;;;;23.67;13.48;;;;;;;-1.43;100.00;101247.50;5015749;28;20052;-70
2021/01/10 06:37:27;;;;;;;24.20;13.82;;;;;;;-1.47;100.00;101246.72;5014693;28;20104;-70
2021/01/10 06:40:18;;;;;;;21.50;13.38;;;;;;;-1.48;100.00;101249.38;5015734;28;20574;-70
2021/01/10 06:43:04;;;;;;;20.98;12.63;;;;;;;-1.54;100.00;101250.41;5014367;28;20120;-70
2021/01/10 06:45:48;;;;;;;19.48;12.15;;;;;;;-1.56;100.00;101254.00;5014637;28;20053;-69
2021/01/10 06:48:32;;;;;;;;;;;;;;;-1.62;100.00;101251.53;5015681;28;20179;-70
2021/01/10 06:51:18;;;;;;;19.75;11.93;;;;;;;-1.62;100.00;101251.53;5014226;28;19964;-70
2021/01/10 06:54:03;;;;;;;21.55;11.48;;;;;;;-1.62;100.00;101246.31;5014178;28;20040;-69
2021/01/10 06:56:55;;;;;;;19.63;11.48;;;;;;;-1.67;100.00;101253.44;5015087;28;20049;-70
2021/01/10 06:59:57;;;;;;;23.30;12.93;;;;;;;-1.72;100.00;101257.94;5014135;28;20514;-70
2021/01/10 07:03:06;;;;;;;23.42;12.32;;;;;;;-1.78;100.00;101263.38;5014170;28;20104;-70
2021/01/10 07:06:10;;;;;;;22.67;12.63;;;;;;;-1.84;100.00;101259.16;5014099;28;20422;-69
2021/01/10 07:08:54;;;;;;;22.33;11.95;;;;;;;-1.81;100.00;101260.81;5015119;28;20076;-70
2021/01/10 07:11:38;;;;;;;22.23;12.77;;;;;;;-1.85;100.00;101257.44;5013794;28;20127;-70
2021/01/10 07:14:22;;;;;;;25.48;13.75;;;;;;;-1.87;100.00;101263.63;5014743;28;20048;-70
2021/01/10 07:17:09;;;;;;;;;;;;;;;-1.89;100.00;101260.16;5015356;28;20095;-69
2021/01/10 07:19:53;;;;;;;20.33;11.25;;;;;;;-1.90;100.00;101261.06;5000003;28;19924;-69
2021/01/10 07:22:39;;;;;;;22.70;12.43;;;;;;;-1.87;100.00;101251.38;5013634;28;20052;-70
2021/01/10 07:25:34;;;;;;;20.13;11.50;;;;;;;-1.86;100.00;101257.50;5014374;28;20088;-70
2021/01/10 07:28:35;;;;;;;17.70;11.10;;;;;;;-1.85;100.00;101261.81;5013861;28;20148;-70
2021/01/10 07:31:20;;;;;;;20.67;10.93;;;;;;;-1.81;100.00;101266.03;5013458;28;20510;-70
2021/01/10 07:34:09;;;;;;;23.23;12.05;;;;;;;-1.77;100.00;101263.28;5013657;28;20100;-69
2021/01/10 07:36:58;;;;;;;19.98;11.13;;;;;;;-1.70;100.00;101264.84;5014483;28;20056;-70
2021/01/10 07:39:53;;;;;;;21.95;11.68;;;;;;;-1.60;100.00;101265.41;5013351;28;20482;-69
2021/01/10 07:42:38;;;;;;;18.15;10.13;;;;;;;-1.48;100.00;101270.28;4999530;28;20104;-69
2021/01/10 07:45:36;;;;;;;18.42;10.15;;;;;;;-1.38;100.00;101266.50;5014375;28;20049;-69
2021/01/10 07:48:30;;;;;;;17.75;9.48;;;;;;;-1.26;100.00;101274.00;5014028;28;20103;-70
2021/01/10 07:51:15;;;;;;;;;;;;;;;-1.18;100.00;101264.13;5014472;28;20104;-70
2021/01/10 07:54:00;;;;;;;18.50;10.10;;;;;;;-1.06;100.00;101274.25;5014385;28;19920;-69
2021/01/10 07:56:44;;;;;;;17.73;10.27;;;;;;;-0.97;100.00;101279.16;5013221;28;20521;-69
2021/01/10 07:59:29;;;;;;;14.73;9.15;;;;;;;-0.88;100.00;101278.88;5013249;28;20161;-70
2021/01/10 08:02:13;;;;;;;15.60;9.15;;;;;;;-0.81;100.00;101275.19;5013882;28;20525;-70
2021/01/10 08:04:57;;;;;;;;;;;;;;;-0.76;100.00;101279.34;5014594;28;20068;-70
2021/01/10 08:07:52;;;;;;;13.80;7.70;;;;;;;-0.63;100.00;101274.59;5014155;28;19963;-70
2021/01/10 08:10:57;;;;;;;16.75;9.23;;;;;;;-0.61;100.00;101273.63;5012687;28;20306;-69
2021/01/10 08:13:40;;;;;;;19.50;9.85;;;;;;;-0.52;99.72;101273.31;5012574;28;20143;-70
2021/01/10 08:16:33;;;;;;;;;;;;;;;-0.43;98.55;101280.88;5014143;28;20183;-69
2021/01/10 08:19:17;;;;;;;14.93;9.25;;;;;;;-0.30;97.53;101286.56;5013790;28;20436;-69
2021/01/10 08:22:05;;;;;;;14.52;8.68;;;;;;;-0.32;96.96;101285.75;5012272;28;20120;-69
2021/01/10 08:24:49;;;;;;;16.90;9.25;;;;;;;-0.22;96.21;101276.69;4998878;28;20056;-69
2021/01/10 08:27:33;;;;;;;;;;;;;;;-0.22;96.12;101287.16;5014147;28;20041;-69
2021/01/10 08:30:17;;;;;;;14.07;8.75;;;;;;;-0.11;95.97;101290.25;4998995;28;19967;-69
2021/01/10 08:33:01;;;;;;;18.52;9.90;;;;;;;-0.15;95.36;101299.13;5013294;28;20056;-70
2021/01/10 08:35:46;;;;;;;15.50;9.50;;;;;;;-0.03;95.01;101289.06;5011797;28;20065;-70
2021/01/10 08:38:30;;;;;;;14.65;8.88;;;;;;;0.08;94.68;101293.03;5012247;28;20084;-70
2021/01/10 08:41:24;;;;;;;;;;;;;;;0.16;93.49;101290.13;5013613;28;20057;-70
2021/01/10 08:44:15;;;;;;;16.23;9.30;;;;;;;0.33;93.09;101288.63;5013486;28;19963;-70
2021/01/10 08:47:06;;;;;;;18.35;9.10;;;;;;;0.55;91.60;101292.16;5013445;28;20100;-69
2021/01/10 08:49:57;;;;;;;14.70;8.98;;;;;;;0.46;90.00;101287.28;5012247;28;20180;-69
2021/01/10 08:52:58;;;;;;;15.43;8.95;;;;;;;0.55;90.29;101283.44;5026218;28;20080;-70
2021/01/10 08:55:43;;;;;;;13.65;8.63;;;;;;;0.70;89.71;101301.22;5026202;28;20049;-70
2021/01/10 08:58:37;;;;;;;15.02;10.00;;;;;;;0.73;89.81;101299.34;5012143;28;20060;-70
2021/01/10 09:01:22;;;;;;;14.18;8.40;;;;;;;0.67;89.72;101303.97;5012172;28;20052;-70
2021/01/10 09:04:08;;;;;;;15.48;9.82;;;;;;;0.78;89.24;101301.78;4998091;28;20125;-70
2021/01/10 09:06:58;;;;;;;15.52;9.95;;;;;;;0.98;88.26;101309.75;5012936;28;20438;-70
2021/01/10 09:09:52;;;;;;;14.68;9.13;;;;;;;1.18;87.15;101315.97;5012056;28;20045;-70
2021/01/10 09:12:46;;;;;;;18.10;10.65;;;;;;;1.90;85.67;101305.06;5012208;28;20129;-70
2021/01/10 09:15:34;;;;;;;16.77;11.05;;;;;;;2.36;80.73;101312.66;5011808;28;20141;-70
2021/01/10 09:18:19;;;;;;;51.13;27.08;;;;;;;2.53;79.49;101307.53;5012143;28;20072;-69
2021/01/10 09:21:08;;;;;;;22.95;13.82;;;;;;;2.31;78.43;101314.66;5012094;28;20064;-68
2021/01/10 09:23:55;;;;;;;15.38;10.73;;;;;;;2.28;79.34;101306.88;5013112;28;20056;-70
2021/01/10 09:26:39;;;;;;;17.15;11.07;;;;;;;2.38;79.22;101315.25;5012103;28;20048;-70
2021/01/10 09:29:23;;;;;;;20.33;10.32;;;;;;;2.49;78.06;101314.69;5013008;28;20056;-70
2021/01/10 09:32:09;;;;;;;16.50;10.90;;;;;;;2.44;77.68;101313.19;5012920;28;20053;-70
2021/01/10 09:34:54;;;;;;;15.85;10.40;;;;;;;2.44;77.67;101313.19;5011996;28;20053;-70
2021/01/10 09:37:38;;;;;;;15.20;9.77;;;;;;;2.58;76.42;101306.38;5011864;28;20073;-70
2021/01/10 09:40:22;;;;;;;15.38;9.85;;;;;;;2.80;75.62;101307.13;5011777;28;20411;-70
2021/01/10 09:43:07;;;;;;;14.93;9.25;;;;;;;2.50;75.86;101299.72;5011558;28;20515;-70
2021/01/10 09:45:51;;;;;;;15.20;10.05;;;;;;;2.70;74.63;101295.28;5012871;28;20104;-68
2021/01/10 09:48:35;;;;;;;;;;;;;;;3.43;74.02;101303.22;5015535;28;20188;-70
2021/01/10 09:51:30;;;;;;;;;;;;;;;;;;;;;
2021/01/10 09:54:15;;;;;;;12.73;8.93;;;;;;;7.19;59.94;101287.69;5016343;28;20521;-70
2021/01/10 09:57:00;;;;;;;16.08;11.00;;;;;;;8.64;54.54;101282.22;5001165;28;20490;-70
2021/01/10 09:59:46;;;;;;;12.45;8.65;;;;;;;9.29;51.49;101286.31;5016263;28;20057;-70
2021/01/10 10:02:35;;;;;;;14.75;10.52;;;;;;;10.08;48.80;101279.47;5016187;28;20092;-70
2021/01/10 10:05:25;;;;;;;13.70;9.02;;;;;;;10.19;46.24;101279.50;5015329;28;20407;-70
2021/01/10 10:08:11;;;;;;;14.20;9.68;;;;;;;11.53;43.54;101279.22;5015932;28;20068;-70
2021/01/10 10:10:55;;;;;;;12.73;8.70;;;;;;;12.19;42.45;101278.94;5015873;28;20139;-70
2021/01/10 10:13:39;;;;;;;12.63;8.43;;;;;;;12.59;41.21;101271.03;5015884;28;20103;-70
2021/01/10 10:16:22;;;;;;;12.55;9.38;;;;;;;12.24;40.67;101270.53;5015019;28;20513;-70
2021/01/10 10:19:06;;;;;;;10.52;8.05;;;;;;;11.41;42.31;101274.88;5014897;28;20099;-70
2021/01/10 10:21:50;;;;;;;10.20;8.30;;;;;;;11.33;42.87;101263.97;5014617;28;20568;-70
2021/01/10 10:24:34;;;;;;;12.13;8.90;;;;;;;10.78;43.94;101265.88;5015973;28;20072;-70
2021/01/10 10:27:18;;;;;;;13.73;10.48;;;;;;;12.19;41.34;101265.56;5014838;28;20053;-71
2021/01/10 10:30:03;;;;;;;13.88;10.70;;;;;;;14.07;38.14;101254.75;5015837;28;20540;-70
2021/01/10 10:32:47;;;;;;;23.90;16.35;;;;;;;15.92;34.59;101246.25;5015600;28;20509;-70
2021/01/10 10:35:31;;;;;;;18.02;13.80;;;;;;;17.59;31.59;101249.09;5015478;28;20068;-68
2021/01/10 10:38:15;;;;;;;15.43;11.95;;;;;;;18.67;29.75;101235.09;5014502;28;20076;-70
2021/01/10 10:41:00;;;;;;;11.70;9.88;;;;;;;20.37;27.05;101233.94;5014362;28;20049;-70
2021/01/10 10:43:44;;;;;;;13.23;10.55;;;;;;;20.80;25.69;101238.56;5015343;28;20048;-69
2021/01/10 10:46:31;;;;;;;10.48;9.15;;;;;;;21.38;25.32;101239.41;5015354;28;20056;-69
2021/01/10 10:49:16;;;;;;;15.15;10.48;;;;;;;21.85;24.50;101243.28;5036458;23;20065;-66
2021/01/10 10:52:00;;;;;;;14.68;13.13;;;;;;;21.97;23.90;101235.47;5014379;28;20061;-65
2021/01/10 10:54:44;;;;;;;16.10;14.60;;;;;;;22.20;23.46;101227.97;5014158;28;20506;-65
2021/01/10 10:57:28;;;;;;;12.13;9.95;;;;;;;22.86;22.60;101222.84;5015070;28;20084;-66
2021/01/10 11:00:13;;;;;;;;;;;;;;;23.02;21.85;101222.47;4995137;28;20084;-66
2021/01/10 11:03:00;;;;;;;14.00;12.60;;;;;;;23.49;21.68;101219.78;4995520;28;19937;-66
2021/01/10 11:05:45;;;;;;;14.98;13.55;;;;;;;23.85;21.41;101220.31;4995373;28;20053;-66
2021/01/10 11:08:29;;;;;;;11.25;10.00;;;;;;;24.81;20.39;101215.09;4994274;28;20057;-66
2021/01/10 11:11:13;;;;;;;10.35;9.25;;;;;;;24.93;20.39;101210.63;4994292;28;20054;-66
2021/01/10 11:13:57;;;;;;;;;;;;;;;25.09;19.69;101207.41;4994950;28;20050;-65
2021/01/10 11:16:43;;;;;;;15.77;13.38;;;;;;;25.23;19.47;101198.19;4995333;28;19925;-66
2021/01/10 11:19:27;;;;;;;27.17;21.77;;;;;;;25.89;19.06;101194.03;4994104;28;20599;-65
2021/01/10 11:22:10;;;;;;;16.00;12.63;;;;;;;26.08;18.44;101196.63;4995122;28;20066;-66
2021/01/10 11:24:54;;;;;;;25.73;18.88;;;;;;;25.50;18.92;101194.22;4994036;28;20100;-66
2021/01/10 11:27:38;;;;;;;16.02;13.30;;;;;;;25.77;18.53;101198.50;4994899;28;20056;-66
2021/01/10 11:30:23;;;;;;;10.00;8.98;;;;;;;26.37;18.27;101186.91;4980315;28;20053;-67
2021/01/10 11:33:07;;;;;;;15.98;11.75;;;;;;;26.88;17.66;101187.44;4994985;28;20538;-66
2021/01/10 11:35:51;;;;;;;19.63;15.80;;;;;;;26.86;17.73;101184.94;4994870;28;20096;-66
2021/01/10 11:38:35;;;;;;;;;;;;;;;26.69;17.14;101172.09;4994426;28;20053;-66
2021/01/10 11:41:20;;;;;;;28.23;25.75;;;;;;;26.66;17.35;101173.38;4994677;28;20470;-67
2021/01/10 11:44:04;;;;;;;16.38;14.75;;;;;;;25.96;17.47;101171.06;4980169;28;20097;-67
2021/01/10 11:46:52;;;;;;;13.57;12.27;;;;;;;25.70;17.36;101171.22;4994638;28;20574;-67
2021/01/10 11:49:35;;;;;;;22.58;20.52;;;;;;;25.80;17.99;101165.25;4979657;28;20053;-67
2021/01/10 11:52:23;;;;;;;23.65;21.23;;;;;;;26.63;17.07;101162.03;4994806;28;20138;-67
2021/01/10 11:55:08;;;;;;;35.67;32.25;;;;;;;26.39;17.69;101160.16;4994721;28;20092;-66
2021/01/10 11:57:52;;;;;;;35.55;32.15;;;;;;;25.41;17.72;101160.09;4966129;28;20053;-67
2021/01/10 12:00:37;;;;;;;16.35;14.77;;;;;;;26.04;18.09;101162.56;4994462;28;20054;-67
2021/01/10 12:03:23;;;;;;;16.17;14.63;;;;;;;26.04;17.80;101157.13;4994479;28;20573;-65
2021/01/10 12:06:07;;;;;;;7.97;7.18;;;;;;;25.56;17.59;101161.47;4994207;28;20057;-66
2021/01/10 12:08:51;;;;;;;;;;;;;;;25.06;18.07;101161.47;4994906;28;20049;-66
2021/01/10 12:11:36;;;;;;;25.98;23.50;;;;;;;24.80;18.55;101161.59;4994201;28;19921;-67
2021/01/10 12:14:20;;;;;;;7.97;7.18;;;;;;;24.10;18.53;101158.75;4993113;28;20050;-66
2021/01/10 12:17:07;;;;;;;21.15;19.13;;;;;;;23.81;18.69;101159.13;4994370;28;20057;-67
2021/01/10 12:19:52;;;;;;;9.15;8.25;;;;;;;23.31;19.86;101165.09;4994236;28;20057;-65
2021/01/10 12:22:36;;;;;;;8.18;7.38;;;;;;;23.70;19.03;101162.47;4994200;28;20096;-66
2021/01/10 12:25:20;;;;;;;;;;;;;;;23.48;19.14;101152.78;4994562;28;20585;-66
2021/01/10 12:28:04;;;;;;;7.85;7.13;;;;;;;22.66;19.58;101145.75;4994122;28;19945;-67
2021/01/10 12:30:48;;;;;;;13.68;12.27;;;;;;;22.50;20.63;101145.25;4994505;28;20049;-66
2021/01/10 12:33:32;;;;;;;;;;;;;;;21.66;20.60;101151.66;4993766;28;20049;-67
2021/01/10 12:36:16;;;;;;;10.18;9.07;;;;;;;21.89;20.27;101138.69;4993167;28;19920;-65
2021/01/10 12:39:00;;;;;;;;;;;;;;;21.86;20.80;101146.38;4994423;28;20053;-67
2021/01/10 12:41:44;;;;;;;8.95;8.07;;;;;;;22.10;20.53;101149.53;4992808;28;19967;-67
2021/01/10 12:44:28;;;;;;;8.48;7.63;;;;;;;20.22;22.02;101147.25;4994058;28;20049;-66
2021/01/10 12:47:15;;;;;;;6.18;5.57;;;;;;;19.94;22.74;101148.88;4993638;28;20097;-67